Time;durP1;ratioP1;P1;durP2;ratioP2;P2;SDS_P1;SDS_P2;PMS_P1;PMS_P2;Temp;Humidity;BMP_temperature;BMP_pressure;BME280_temperature;BME280_humidity;BME280_pressure;Samples;Min_cycle;Max_cycle;Signal;HPM_P1;HPM_P2
2022/06/09 00:00:47;;;;;;;25.70;13.30;;;14.70;99.90;;;;;;5020805;28;20455;-48
2022/06/09 00:03:21;;;;;;;23.85;13.45;;;14.70;99.90;;;;;;5021980;28;20060;-48
2022/06/09 00:05:47;;;;;;;18.92;12.40;;;14.70;99.90;;;;;;5022588;28;20049;-51
2022/06/09 00:08:14;;;;;;;23.65;13.20;;;14.60;99.90;;;;;;5019055;28;20029;-45
2022/06/09 00:10:43;;;;;;;25.23;12.88;;;14.60;99.90;;;;;;5020895;28;20568;-50
2022/06/09 00:13:09;;;;;;;23.00;12.10;;;14.60;99.90;;;;;;5017918;28;20063;-47
2022/06/09 00:15:34;;;;;;;21.73;12.48;;;14.50;99.90;;;;;;5019695;28;20034;-45
2022/06/09 00:18:00;;;;;;;25.15;12.25;;;14.50;99.90;;;;;;5018730;28;20044;-45
2022/06/09 00:20:26;;;;;;;21.05;12.45;;;14.50;99.90;;;;;;5021232;28;20037;-47
2022/06/09 00:22:51;;;;;;;22.00;12.13;;;14.50;99.90;;;;;;5014927;28;20384;-49
2022/06/09 00:25:18;;;;;;;23.23;11.75;;;14.40;99.90;;;;;;5020831;28;20063;-48
2022/06/09 00:27:43;;;;;;;21.77;12.48;;;14.40;99.90;;;;;;5020333;28;20045;-45
2022/06/09 00:30:11;;;;;;;22.77;12.10;;;14.30;99.90;;;;;;5022344;28;20038;-45
2022/06/09 00:32:37;;;;;;;22.83;12.30;;;14.30;99.90;;;;;;5022828;28;20523;-48
2022/06/09 00:35:03;;;;;;;20.40;10.65;;;14.20;99.90;;;;;;5025171;28;20041;-46
2022/06/09 00:37:28;;;;;;;22.02;10.27;;;14.20;99.90;;;;;;5023013;28;20459;-45
2022/06/09 00:39:54;;;;;;;22.58;10.98;;;14.10;99.90;;;;;;5026386;28;20060;-46
2022/06/09 00:42:20;;;;;;;21.98;10.13;;;14.10;99.90;;;;;;5024622;28;20049;-45
2022/06/09 00:44:45;;;;;;;16.63;9.48;;;14.10;99.90;;;;;;5023482;28;21569;-49
2022/06/09 00:47:29;;;;;;;21.00;9.88;;;14.00;99.90;;;;;;5024685;28;20065;-46
2022/06/09 00:50:06;;;;;;;15.90;9.50;;;14.00;99.90;;;;;;5024329;28;20056;-46
2022/06/09 00:52:36;;;;;;;24.15;9.68;;;14.00;99.90;;;;;;5020723;28;21552;-46
2022/06/09 00:55:10;;;;;;;15.55;9.55;;;14.00;99.90;;;;;;5021989;28;20061;-45
2022/06/09 00:57:47;;;;;;;17.95;9.82;;;13.90;99.90;;;;;;5019508;28;20917;-51
2022/06/09 01:00:17;;;;;;;17.73;9.43;;;13.90;99.90;;;;;;5023163;28;20133;-45
2022/06/09 01:02:45;;;;;;;23.67;10.73;;;13.80;99.90;;;;;;5023730;28;20069;-47
2022/06/09 01:05:13;;;;;;;19.60;10.15;;;13.80;99.90;;;;;;5025944;28;20041;-45
2022/06/09 01:07:43;;;;;;;24.70;10.65;;;13.80;99.90;;;;;;5020225;28;20440;-46
2022/06/09 01:10:10;;;;;;;25.60;11.18;;;13.80;99.90;;;;;;5022622;28;20041;-48
2022/06/09 01:12:41;;;;;;;22.20;10.85;;;13.70;99.90;;;;;;5021606;28;20125;-45
2022/06/09 01:15:10;;;;;;;20.70;10.52;;;13.70;99.90;;;;;;5024127;28;20448;-46
2022/06/09 01:18:09;;;;;;;21.38;10.27;;;13.70;99.90;;;;;;5024820;28;20344;-48
2022/06/09 01:20:45;;;;;;;23.80;10.23;;;13.70;99.90;;;;;;5022336;28;20096;-47
2022/06/09 01:23:32;;;;;;;28.83;11.15;;;13.60;99.90;;;;;;5022316;28;20041;-45
2022/06/09 01:26:00;;;;;;;25.02;10.55;;;13.60;99.90;;;;;;5023553;28;20151;-50
2022/06/09 01:28:49;;;;;;;27.23;10.63;;;13.50;99.90;;;;;;5025155;28;20041;-45
2022/06/09 01:31:59;;;;;;;20.90;9.90;;;13.50;99.90;;;;;;5024391;28;20136;-45
2022/06/09 01:34:42;;;;;;;20.38;9.13;;;13.50;99.90;;;;;;5018869;28;20207;-49
2022/06/09 01:37:12;;;;;;;21.25;9.52;;;13.40;99.90;;;;;;5021350;28;20050;-47
2022/06/09 01:39:57;;;;;;;22.30;10.15;;;13.40;99.90;;;;;;5021893;28;20067;-46
2022/06/09 01:42:28;;;;;;;18.88;9.50;;;13.40;99.90;;;;;;5023347;28;20057;-45
2022/06/09 01:45:05;;;;;;;27.67;9.80;;;13.30;99.90;;;;;;5021917;28;20045;-48
2022/06/09 01:47:55;;;;;;;22.77;9.40;;;13.30;99.90;;;;;;5021232;28;20409;-45
2022/06/09 01:50:47;;;;;;;18.20;9.07;;;13.30;99.90;;;;;;5025527;28;20041;-46
2022/06/09 01:53:35;;;;;;;24.63;9.65;;;13.30;99.90;;;;;;5013313;28;20064;-45
2022/06/09 01:56:25;;;;;;;24.45;9.73;;;13.30;99.90;;;;;;5020065;28;20041;-48
2022/06/09 01:59:14;;;;;;;26.17;9.43;;;13.20;99.90;;;;;;5020241;28;20193;-45
2022/06/09 02:01:50;;;;;;;19.35;9.10;;;13.20;99.90;;;;;;5013683;28;20045;-45
2022/06/09 02:04:26;;;;;;;26.60;9.38;;;13.20;99.90;;;;;;5022452;28;20537;-46
2022/06/09 02:06:52;;;;;;;28.17;9.40;;;13.10;99.90;;;;;;5023726;28;20408;-46
2022/06/09 02:09:18;;;;;;;24.10;10.65;;;13.20;99.90;;;;;;5020644;28;20049;-45
2022/06/09 02:11:53;;;;;;;25.65;9.80;;;13.10;99.90;;;;;;5019398;28;20029;-47
2022/06/09 02:14:21;;;;;;;28.42;10.23;;;13.20;99.90;;;;;;5021970;28;20041;-47
2022/06/09 02:16:47;;;;;;;;;;;13.20;99.90;;;;;;5020064;28;20117;-45
2022/06/09 02:19:12;;;;;;;29.95;10.23;;;13.20;99.90;;;;;;5023303;28;20303;-48
2022/06/09 02:21:38;;;;;;;27.58;10.00;;;13.20;99.90;;;;;;5022059;28;20037;-45
2022/06/09 02:24:05;;;;;;;26.05;10.25;;;13.20;99.90;;;;;;5015518;28;20045;-49
2022/06/09 02:26:30;;;;;;;25.50;10.23;;;13.20;99.90;;;;;;5021077;28;20042;-46
2022/06/09 02:28:56;;;;;;;28.25;10.88;;;13.10;99.90;;;;;;5020719;28;20060;-47
2022/06/09 02:31:23;;;;;;;28.35;10.38;;;13.20;99.90;;;;;;5020966;28;20102;-47
2022/06/09 02:33:50;;;;;;;22.90;10.35;;;13.10;99.90;;;;;;5022014;28;20568;-47
2022/06/09 02:36:16;;;;;;;21.08;9.80;;;13.20;99.90;;;;;;5020672;28;20128;-52
2022/06/09 02:38:42;;;;;;;21.88;9.15;;;13.20;99.90;;;;;;5021849;28;20415;-46
2022/06/09 02:41:07;;;;;;;26.75;10.45;;;13.10;99.90;;;;;;5021883;28;20029;-46
2022/06/09 02:43:34;;;;;;;23.17;10.95;;;13.10;99.90;;;;;;5023251;28;20037;-51
2022/06/09 02:46:01;;;;;;;26.33;10.65;;;13.10;99.90;;;;;;5020029;28;20383;-50
2022/06/09 02:48:27;;;;;;;32.40;11.25;;;13.10;99.90;;;;;;5023404;28;20392;-51
2022/06/09 02:50:53;;;;;;;26.40;10.43;;;13.10;99.90;;;;;;5021551;28;20052;-45
2022/06/09 02:53:19;;;;;;;30.60;10.48;;;13.00;99.90;;;;;;5022684;28;20053;-45
2022/06/09 02:55:46;;;;;;;31.67;11.10;;;13.00;99.90;;;;;;5020346;28;20049;-46
2022/06/09 02:58:12;;;;;;;23.90;10.23;;;13.00;99.90;;;;;;5019735;28;20045;-46
2022/06/09 03:00:38;;;;;;;29.67;10.50;;;13.00;99.90;;;;;;5021181;28;20041;-47
2022/06/09 03:03:07;;;;;;;25.02;10.15;;;12.90;99.90;;;;;;5019992;28;20546;-45
2022/06/09 03:05:35;;;;;;;29.60;10.13;;;12.90;99.90;;;;;;5023522;28;20118;-50
2022/06/09 03:08:02;;;;;;;27.75;10.80;;;12.90;99.90;;;;;;5024690;28;20095;-46
2022/06/09 03:10:28;;;;;;;27.90;10.20;;;13.00;99.90;;;;;;5021381;28;20141;-47
2022/06/09 03:12:54;;;;;;;25.88;10.50;;;12.90;99.90;;;;;;5024458;28;20124;-46
2022/06/09 03:15:22;;;;;;;27.38;10.57;;;13.00;99.90;;;;;;5021455;28;20783;-49
2022/06/09 03:17:49;;;;;;;27.25;9.55;;;13.00;99.90;;;;;;5022397;28;20037;-48
2022/06/09 03:20:23;;;;;;;23.40;9.75;;;12.90;99.90;;;;;;5021068;28;20044;-46
2022/06/09 03:22:48;;;;;;;23.95;10.23;;;13.00;99.90;;;;;;5022831;28;20042;-48
2022/06/09 03:25:14;;;;;;;27.00;9.80;;;13.00;99.90;;;;;;5021439;28;20042;-46
2022/06/09 03:27:40;;;;;;;23.20;10.27;;;13.00;99.90;;;;;;5021091;28;20041;-48
2022/06/09 03:30:06;;;;;;;28.90;10.73;;;13.10;99.90;;;;;;5023490;28;20037;-46
2022/06/09 03:32:32;;;;;;;30.80;9.75;;;13.10;99.90;;;;;;5022130;28;20041;-48
2022/06/09 03:34:58;;;;;;;29.95;10.95;;;13.10;99.90;;;;;;5022866;28;20056;-49
2022/06/09 03:37:24;;;;;;;22.60;8.73;;;13.20;99.90;;;;;;5022535;28;20148;-46
2022/06/09 03:39:49;;;;;;;20.98;9.07;;;13.20;99.90;;;;;;5022447;28;20120;-50
2022/06/09 03:42:15;;;;;;;21.92;9.85;;;13.30;99.90;;;;;;5022198;28;20127;-48
2022/06/09 03:44:41;;;;;;;27.02;9.63;;;13.30;99.90;;;;;;5023317;28;20403;-47
2022/06/09 03:47:08;;;;;;;24.88;9.60;;;13.30;99.90;;;;;;5020331;28;20664;-46
2022/06/09 03:49:34;;;;;;;25.73;9.60;;;13.40;99.90;;;;;;5022520;28;20067;-47
2022/06/09 03:52:00;;;;;;;26.55;9.07;;;13.40;99.90;;;;;;5020997;28;20097;-47
2022/06/09 03:54:25;;;;;;;24.10;8.88;;;13.40;99.90;;;;;;5020029;28;20041;-46
2022/06/09 03:56:51;;;;;;;26.55;8.90;;;13.40;99.90;;;;;;5022873;28;20255;-50
2022/06/09 03:59:17;;;;;;;21.45;8.50;;;13.40;99.90;;;;;;5021069;28;20045;-47
2022/06/09 04:01:43;;;;;;;22.83;9.00;;;13.40;99.90;;;;;;5023426;28;20547;-46
2022/06/09 04:04:09;;;;;;;25.48;8.73;;;;;;;;;;5020513;28;20144;-46
2022/06/09 04:06:35;;;;;;;23.33;9.13;;;13.50;99.90;;;;;;5025518;28;20136;-45
2022/06/09 04:09:02;;;;;;;19.63;8.32;;;13.60;99.90;;;;;;5025054;28;20203;-48
2022/06/09 04:11:28;;;;;;;22.60;8.57;;;13.60;99.90;;;;;;5024159;28;20037;-47
2022/06/09 04:13:54;;;;;;;18.33;8.02;;;13.60;99.90;;;;;;5027743;28;20055;-47
2022/06/09 04:16:29;;;;;;;18.63;8.48;;;13.70;99.90;;;;;;5024876;28;20362;-48
2022/06/09 04:18:59;;;;;;;18.50;7.93;;;13.70;99.90;;;;;;5024053;28;20037;-45
2022/06/09 04:21:25;;;;;;;20.00;8.38;;;13.80;99.90;;;;;;5023888;28;20144;-45
2022/06/09 04:23:50;;;;;;;21.15;8.07;;;13.80;99.90;;;;;;5025251;28;20042;-45
2022/06/09 04:26:19;;;;;;;18.35;8.15;;;13.90;99.90;;;;;;5019747;28;20049;-48
2022/06/09 04:28:46;;;;;;;16.13;7.50;;;14.00;99.90;;;;;;5023199;28;20071;-47
2022/06/09 04:31:12;;;;;;;17.83;7.50;;;14.10;99.90;;;;;;5026324;28;20048;-49
2022/06/09 04:33:38;;;;;;;19.13;7.95;;;14.30;99.90;;;;;;5024360;28;20045;-52
2022/06/09 04:36:05;;;;;;;16.98;7.75;;;15.20;99.90;;;;;;5023207;28;20046;-48
2022/06/09 04:38:31;;;;;;;18.67;7.10;;;16.00;99.90;;;;;;5025980;28;20053;-45
2022/06/09 04:40:56;;;;;;;16.80;7.00;;;15.90;99.90;;;;;;5022269;28;20143;-46
2022/06/09 04:43:22;;;;;;;16.75;6.57;;;15.90;99.90;;;;;;5025856;28;20103;-45
2022/06/09 04:45:48;;;;;;;13.85;6.40;;;15.80;99.90;;;;;;5023669;28;20045;-48
2022/06/09 04:48:13;;;;;;;18.83;6.32;;;15.70;99.90;;;;;;5022947;28;20038;-45
2022/06/09 04:50:42;;;;;;;14.25;6.57;;;15.70;99.90;;;;;;5024371;28;20041;-48
2022/06/09 04:53:09;;;;;;;15.05;6.63;;;15.60;99.90;;;;;;5025020;28;20061;-46
2022/06/09 04:55:38;;;;;;;13.87;6.57;;;15.60;99.90;;;;;;5023869;28;20045;-49
2022/06/09 04:58:05;;;;;;;17.60;6.40;;;15.60;99.90;;;;;;5025000;28;20033;-47
2022/06/09 05:00:30;;;;;;;13.10;6.28;;;15.60;99.90;;;;;;5024092;28;20033;-46
2022/06/09 05:02:59;;;;;;;15.18;6.40;;;15.60;99.90;;;;;;5028411;28;20091;-46
2022/06/09 05:05:29;;;;;;;15.45;7.07;;;15.50;99.90;;;;;;5021936;28;20045;-46
2022/06/09 05:07:55;;;;;;;18.10;6.18;;;15.50;99.90;;;;;;5027413;28;20111;-48
2022/06/09 05:10:20;;;;;;;13.18;6.40;;;15.40;99.90;;;;;;5027056;28;20433;-48
2022/06/09 05:12:46;;;;;;;14.82;6.07;;;15.30;99.90;;;;;;5025417;28;20065;-48
2022/06/09 05:15:14;;;;;;;16.15;6.82;;;15.20;99.90;;;;;;5023841;28;20136;-46
2022/06/09 05:17:40;;;;;;;13.18;5.82;;;15.20;99.90;;;;;;5022831;28;20120;-47
2022/06/09 05:20:06;;;;;;;17.05;6.60;;;15.10;99.90;;;;;;5023415;28;20056;-46
2022/06/09 05:22:31;;;;;;;13.20;6.78;;;15.20;99.90;;;;;;5023888;28;20108;-46
2022/06/09 05:24:59;;;;;;;15.80;6.45;;;16.40;99.90;;;;;;5022413;28;20570;-50
2022/06/09 05:27:26;;;;;;;12.48;6.03;;;17.80;99.90;;;;;;5021555;28;20033;-50
2022/06/09 05:29:52;;;;;;;13.50;4.95;;;18.10;99.90;;;;;;5024042;28;20498;-46
2022/06/09 05:32:17;;;;;;;11.10;5.40;;;18.50;99.90;;;;;;5024742;28;20041;-46
2022/06/09 05:34:43;;;;;;;13.80;5.47;;;18.30;99.90;;;;;;5023738;28;21616;-49
2022/06/09 05:37:09;;;;;;;12.57;6.20;;;17.90;99.90;;;;;;5023351;28;20129;-46
2022/06/09 05:44:56;;;;;;;10.00;4.78;;;19.90;99.90;;;;;;5019486;28;20052;-47
2022/06/09 05:47:23;;;;;;;12.88;4.90;;;20.00;99.90;;;;;;5020625;28;20065;-46
2022/06/09 05:49:51;;;;;;;10.13;4.88;;;19.80;99.90;;;;;;5013798;28;20160;-48
2022/06/09 05:52:19;;;;;;;12.50;5.45;;;19.50;99.90;;;;;;5022862;28;20061;-50
2022/06/09 05:54:44;;;;;;;7.47;4.72;;;18.80;99.90;;;;;;5018692;28;20152;-48
2022/06/09 05:57:10;;;;;;;8.85;5.22;;;18.70;99.90;;;;;;5021381;28;20129;-46
2022/06/09 05:59:37;;;;;;;13.02;4.85;;;18.50;99.90;;;;;;5023265;28;20042;-46
2022/06/09 06:02:03;;;;;;;8.68;5.18;;;18.30;99.90;;;;;;5026402;28;20049;-50
2022/06/09 06:04:29;;;;;;;7.83;4.70;;;18.10;99.90;;;;;;5024402;28;20092;-47
2022/06/09 06:06:55;;;;;;;12.88;4.78;;;17.90;99.90;;;;;;5025614;28;20407;-48
2022/06/09 06:09:24;;;;;;;8.80;4.20;;;17.70;99.90;;;;;;5030724;28;20038;-47
2022/06/09 06:11:50;;;;;;;10.25;5.00;;;17.60;99.90;;;;;;5032534;28;20038;-47
2022/06/09 06:14:18;;;;;;;9.82;4.57;;;17.70;99.90;;;;;;5032699;28;20049;-47
2022/06/09 06:16:44;;;;;;;9.73;4.50;;;17.50;99.90;;;;;;5029948;28;20044;-46
2022/06/09 06:19:13;;;;;;;7.20;4.32;;;17.70;99.90;;;;;;5030232;28;20425;-46
2022/06/09 06:21:41;;;;;;;9.02;5.03;;;17.80;99.90;;;;;;5031776;28;20073;-47
2022/06/09 06:24:07;;;;;;;7.75;4.88;;;17.80;99.90;;;;;;5029047;28;20053;-46
2022/06/09 06:26:34;;;;;;;8.73;4.88;;;17.60;99.90;;;;;;5032044;28;20408;-46
2022/06/09 06:28:59;;;;;;;10.77;5.03;;;17.60;99.90;;;;;;5029424;28;20083;-47
2022/06/09 06:31:25;;;;;;;9.80;4.88;;;17.80;99.90;;;;;;5027786;28;20436;-49
2022/06/09 06:33:51;;;;;;;8.27;4.85;;;17.70;99.90;;;;;;5012382;28;20052;-48
2022/06/09 06:36:17;;;;;;;9.20;5.20;;;17.80;99.90;;;;;;5022336;28;20049;-47
2022/06/09 06:38:43;;;;;;;9.07;5.00;;;17.70;99.90;;;;;;5029768;28;20045;-47
2022/06/09 06:41:11;;;;;;;9.27;5.30;;;17.60;99.90;;;;;;5032068;28;20380;-47
2022/06/09 06:43:38;;;;;;;6.80;4.75;;;17.70;99.90;;;;;;5030653;28;20486;-47
2022/06/09 06:46:04;;;;;;;10.02;5.72;;;17.70;99.90;;;;;;5031217;28;20124;-47
2022/06/09 06:48:32;;;;;;;10.30;5.32;;;17.70;99.90;;;;;;5031896;28;20076;-47
2022/06/09 06:50:58;;;;;;;8.52;4.60;;;18.50;99.90;;;;;;5031836;28;20077;-46
2022/06/09 06:53:24;;;;;;;6.78;5.03;;;18.40;99.90;;;;;;5030410;28;20085;-46
2022/06/09 06:55:50;;;;;;;6.75;4.97;;;18.40;99.90;;;;;;5027252;28;20041;-47
2022/06/09 06:58:16;;;;;;;9.52;5.28;;;18.40;99.90;;;;;;5030131;28;20567;-46
2022/06/09 07:00:42;;;;;;;8.85;4.78;;;18.30;99.90;;;;;;5028013;28;20041;-46
2022/06/09 07:03:10;;;;;;;7.00;4.30;;;18.50;99.90;;;;;;5030112;28;20440;-49
2022/06/09 07:05:36;;;;;;;7.10;4.18;;;18.90;99.90;;;;;;5030947;28;20037;-46
2022/06/09 07:08:04;;;;;;;5.55;4.70;;;19.00;99.90;;;;;;5025021;28;20129;-47
2022/06/09 07:10:31;;;;;;;8.48;4.00;;;19.20;99.90;;;;;;5022463;28;20085;-48
2022/06/09 07:12:57;;;;;;;6.20;3.78;;;19.80;99.90;;;;;;5024321;28;20502;-47
2022/06/09 07:15:23;;;;;;;5.25;3.38;;;21.40;99.90;;;;;;5025564;28;20045;-48
2022/06/09 07:17:49;;;;;;;5.63;3.25;;;21.80;99.90;;;;;;5022118;28;20103;-50
2022/06/09 07:20:15;;;;;;;5.72;3.15;;;22.60;99.90;;;;;;5023427;28;20037;-46
2022/06/09 07:22:41;;;;;;;7.43;3.13;;;23.10;99.90;;;;;;5022921;28;20115;-49
2022/06/09 07:25:08;;;;;;;6.78;3.65;;;23.20;99.90;;;;;;5023745;28;20033;-47
2022/06/09 07:27:34;;;;;;;5.60;2.40;;;23.60;99.90;;;;;;5026303;28;20132;-47
2022/06/09 07:30:00;;;;;;;6.05;2.95;;;23.10;99.90;;;;;;5024906;28;20371;-47
2022/06/09 07:32:26;;;;;;;6.97;3.03;;;22.60;99.90;;;;;;5026537;28;20051;-47
2022/06/09 07:34:52;;;;;;;6.00;2.75;;;22.50;99.90;;;;;;5014950;28;20052;-48
2022/06/09 07:37:18;;;;;;;5.13;2.80;;;22.30;99.90;;;;;;5021149;28;20038;-48
2022/06/09 07:39:43;;;;;;;3.67;2.70;;;22.80;99.90;;;;;;5025236;28;20049;-51
2022/06/09 07:42:09;;;;;;;6.47;2.30;;;22.10;99.90;;;;;;5026342;28;20468;-48
2022/06/09 07:44:35;;;;;;;7.07;2.65;;;21.70;99.90;;;;;;5024513;28;20042;-47
2022/06/09 07:47:01;;;;;;;3.67;2.45;;;21.40;99.90;;;;;;5023057;28;20049;-51
2022/06/09 07:49:26;;;;;;;3.67;2.10;;;21.40;99.90;;;;;;5024354;28;20049;-47
2022/06/09 07:51:52;;;;;;;4.85;2.50;;;;;;;;;;5025479;28;20709;-48
2022/06/09 07:54:18;;;;;;;7.15;2.83;;;21.40;99.90;;;;;;5026626;28;20124;-47
2022/06/09 07:56:44;;;;;;;4.63;2.58;;;21.60;99.90;;;;;;5023211;28;20148;-47
2022/06/09 07:59:09;;;;;;;6.35;2.72;;;21.30;99.90;;;;;;5020299;28;20042;-47
2022/06/09 08:01:36;;;;;;;4.15;2.15;;;21.20;99.90;;;;;;5022507;28;20487;-47
2022/06/09 08:04:03;;;;;;;4.47;2.13;;;20.70;99.90;;;;;;5022878;28;20391;-51
2022/06/09 08:06:29;;;;;;;4.05;2.20;;;20.70;99.90;;;;;;5021623;28;20526;-46
2022/06/09 08:08:58;;;;;;;5.22;1.83;;;21.00;99.90;;;;;;5020261;28;20069;-49
2022/06/09 08:11:27;;;;;;;5.93;2.10;;;21.10;99.90;;;;;;5016641;28;20084;-51
2022/06/09 08:13:55;;;;;;;4.07;1.70;;;21.10;99.90;;;;;;5021825;28;20033;-48
2022/06/09 08:16:21;;;;;;;3.30;1.60;;;21.00;99.90;;;;;;5021722;28;20099;-46
2022/06/09 08:18:47;;;;;;;2.97;1.70;;;21.00;99.90;;;;;;5022103;28;20487;-47
2022/06/09 08:21:13;;;;;;;3.45;1.55;;;21.10;99.90;;;;;;5021416;28;20488;-50
2022/06/09 08:23:38;;;;;;;3.10;1.60;;;21.30;99.90;;;;;;5020347;28;20038;-48
2022/06/09 08:26:05;;;;;;;3.40;1.30;;;21.50;99.90;;;;;;5019914;28;20098;-47
2022/06/09 08:28:31;;;;;;;4.33;1.27;;;21.10;99.90;;;;;;5020293;28;20116;-47
2022/06/09 08:30:57;;;;;;;3.28;1.17;;;21.00;99.90;;;;;;5017542;28;20050;-47
2022/06/09 08:33:25;;;;;;;3.63;1.27;;;21.40;99.90;;;;;;5020872;28;20065;-48
2022/06/09 08:35:51;;;;;;;3.10;1.10;;;21.60;99.90;;;;;;5024992;28;20041;-47
2022/06/09 08:38:16;;;;;;;4.63;1.58;;;21.40;99.90;;;;;;5025281;28;20071;-51
2022/06/09 08:41:00;;;;;;;4.28;1.40;;;20.70;99.90;;;;;;5025053;28;20041;-51
2022/06/09 08:43:34;;;;;;;2.67;1.25;;;21.10;99.90;;;;;;5023427;28;20095;-48
2022/06/09 08:46:36;;;;;;;2.20;1.55;;;21.20;99.90;;;;;;5024453;28;20052;-49
2022/06/09 08:49:04;;;;;;;4.35;1.55;;;21.50;99.90;;;;;;4983032;28;20054;-48
2022/06/09 08:51:32;;;;;;;;;;;21.90;99.90;;;;;;4984903;28;20405;-48
2022/06/09 08:54:14;;;;;;;3.40;1.40;;;22.20;99.90;;;;;;4986614;28;20364;-51
2022/06/09 08:56:39;;;;;;;5.03;1.30;;;22.00;99.90;;;;;;4988330;28;20075;-48
2022/06/09 08:59:37;;;;;;;3.13;1.15;;;22.40;99.90;;;;;;4986499;28;20499;-48
2022/06/09 09:02:14;;;;;;;3.88;1.10;;;22.50;99.90;;;;;;4986489;28;20338;-51
2022/06/09 09:04:45;;;;;;;3.03;0.98;;;22.00;99.90;;;;;;4987038;28;20056;-52
2022/06/09 09:07:23;;;;;;;2.50;1.20;;;21.50;99.90;;;;;;4987583;28;20520;-49
2022/06/09 09:09:48;;;;;;;3.65;1.20;;;22.00;99.90;;;;;;4986535;28;20050;-50
2022/06/09 09:12:43;;;;;;;3.92;1.05;;;22.00;99.90;;;;;;4985144;28;20046;-48
2022/06/09 09:15:22;;;;;;;4.15;1.40;;;22.20;99.90;;;;;;4987878;28;21202;-50
2022/06/09 09:18:11;;;;;;;3.58;1.20;;;22.40;99.90;;;;;;4987943;28;20528;-48
2022/06/09 09:20:46;;;;;;;5.13;1.40;;;22.50;99.90;;;;;;4984060;28;20157;-49
2022/06/09 09:23:11;;;;;;;4.47;1.08;;;22.30;99.90;;;;;;4986454;28;20038;-50
2022/06/09 09:26:10;;;;;;;4.40;1.13;;;22.50;99.90;;;;;;5001128;28;20392;-48
2022/06/09 09:28:44;;;;;;;3.13;1.00;;;22.70;99.90;;;;;;5028795;28;20041;-47
2022/06/09 09:31:19;;;;;;;5.05;1.30;;;22.40;99.90;;;;;;5029323;28;20468;-48
2022/06/09 09:33:45;;;;;;;4.35;1.27;;;22.20;99.90;;;;;;5028716;28;20039;-47
2022/06/09 09:36:24;;;;;;;2.38;1.00;;;22.30;99.90;;;;;;5028696;28;20053;-48
2022/06/09 09:38:56;;;;;;;3.97;1.30;;;22.00;99.90;;;;;;5027607;28;20049;-50
2022/06/09 09:41:28;;;;;;;2.50;0.80;;;22.00;99.90;;;;;;5026801;28;20090;-49
2022/06/09 09:43:54;;;;;;;3.63;0.85;;;22.20;99.90;;;;;;5027097;28;20045;-50
2022/06/09 09:46:40;;;;;;;1.93;0.70;;;22.20;99.90;;;;;;5026393;28;20391;-48
2022/06/09 09:49:15;;;;;;;4.72;0.80;;;21.90;99.90;;;;;;5024022;28;20330;-47
2022/06/09 09:51:43;;;;;;;3.13;0.80;;;21.80;99.90;;;;;;5028500;28;20049;-48
2022/06/09 09:54:23;;;;;;;5.05;1.02;;;21.80;99.90;;;;;;5028705;28;20037;-47
2022/06/09 09:57:16;;;;;;;2.28;1.02;;;22.00;99.90;;;;;;5022598;28;20033;-49
2022/06/09 09:59:53;;;;;;;2.67;0.70;;;22.20;99.90;;;;;;5025293;28;20107;-48
2022/06/09 10:10:56;;;;;;;2.83;0.75;;;22.30;99.90;;;;;;5028498;28;20140;-47
2022/06/09 10:13:32;;;;;;;3.15;1.00;;;22.00;99.90;;;;;;5027761;28;20507;-49
2022/06/09 10:15:58;;;;;;;1.40;0.77;;;21.90;99.90;;;;;;5025852;28;20079;-52
2022/06/09 10:18:23;;;;;;;3.88;1.00;;;22.00;99.90;;;;;;5027747;28;20500;-49
2022/06/09 10:21:08;;;;;;;1.55;0.55;;;22.20;99.90;;;;;;5029108;28;20128;-48
2022/06/09 10:23:42;;;;;;;2.08;0.82;;;22.20;99.90;;;;;;5027937;28;20057;-52
2022/06/09 10:26:21;;;;;;;3.90;0.70;;;22.30;99.90;;;;;;5028109;28;20053;-47
2022/06/09 10:29:05;;;;;;;3.83;0.65;;;22.00;99.90;;;;;;5026315;28;20047;-47
2022/06/09 10:31:43;;;;;;;1.55;0.57;;;22.20;99.90;;;;;;5026679;28;20077;-47
2022/06/09 10:34:27;;;;;;;2.42;0.75;;;22.40;99.90;;;;;;5025806;28;20120;-48
2022/06/09 10:37:21;;;;;;;3.00;0.73;;;22.10;99.90;;;;;;5027378;28;20464;-47
2022/06/09 10:40:03;;;;;;;2.30;0.50;;;22.10;99.90;;;;;;5019528;28;20061;-48
2022/06/09 10:42:53;;;;;;;2.38;0.60;;;22.30;99.90;;;;;;5027151;28;20080;-48
2022/06/09 10:45:41;;;;;;;2.88;0.90;;;22.10;99.90;;;;;;5026435;28;20056;-48
2022/06/09 10:57:09;;;;;;;3.42;0.70;;;22.30;99.90;;;;;;5025324;28;20053;-47
2022/06/09 10:59:57;;;;;;;3.53;0.80;;;22.20;99.90;;;;;;5027126;28;20080;-47
2022/06/09 11:02:23;;;;;;;;;;;22.30;99.90;;;;;;5028763;28;20056;-50
2022/06/09 11:04:51;;;;;;;1.88;0.85;;;22.20;99.90;;;;;;5027272;28;20279;-48
2022/06/09 11:07:31;;;;;;;3.78;0.77;;;22.30;99.90;;;;;;5026355;28;20426;-50
2022/06/09 11:10:13;;;;;;;2.83;0.65;;;22.40;99.90;;;;;;5025733;28;20060;-49
2022/06/09 11:13:11;;;;;;;3.08;0.70;;;22.60;99.90;;;;;;5020433;28;20037;-49
2022/06/09 11:16:02;;;;;;;3.58;0.73;;;22.50;99.90;;;;;;5044213;28;20187;-50
2022/06/09 11:18:41;;;;;;;2.55;1.35;;;22.60;99.90;;;;;;5027267;28;20042;-49
2022/06/09 11:21:16;;;;;;;5.95;0.80;;;22.70;99.90;;;;;;5028533;28;20037;-48
2022/06/09 11:24:14;;;;;;;1.92;0.80;;;22.70;99.90;;;;;;5024046;28;20059;-49
2022/06/09 11:26:54;;;;;;;1.92;0.65;;;23.00;99.90;;;;;;5004598;28;20056;-51
2022/06/09 11:29:49;;;;;;;2.00;0.90;;;23.00;99.90;;;;;;5012838;28;20506;-52
2022/06/09 11:32:38;;;;;;;2.38;0.85;;;23.00;99.90;;;;;;5018318;28;20103;-53
2022/06/09 11:35:19;;;;;;;2.90;0.70;;;23.20;99.90;;;;;;5017910;28;20037;-48
2022/06/09 11:38:04;;;;;;;2.45;0.70;;;23.20;99.90;;;;;;5024419;28;20099;-52
2022/06/09 11:40:48;;;;;;;3.33;0.73;;;23.10;99.90;;;;;;5021944;28;20037;-50
2022/06/09 11:43:37;;;;;;;2.78;0.70;;;23.00;99.90;;;;;;5022193;28;20037;-50
2022/06/09 11:46:18;;;;;;;1.55;0.55;;;23.10;99.90;;;;;;5024241;28;20045;-49
2022/06/09 11:48:48;;;;;;;4.13;0.70;;;22.90;99.90;;;;;;5024551;28;20042;-49
2022/06/09 11:51:20;;;;;;;4.00;1.20;;;22.90;99.90;;;;;;5023427;28;20037;-50
2022/06/09 11:53:50;;;;;;;2.70;1.00;;;22.70;99.90;;;;;;5018166;28;20045;-51
2022/06/09 11:56:43;;;;;;;3.28;1.00;;;22.70;99.90;;;;;;5020343;28;20414;-48
2022/06/09 11:59:12;;;;;;;2.72;0.90;;;22.20;99.90;;;;;;5021637;28;20124;-50
2022/06/09 12:01:37;;;;;;;3.33;1.30;;;22.30;99.90;;;;;;5020046;28;20128;-47
2022/06/09 12:04:24;;;;;;;4.07;1.42;;;22.30;99.90;;;;;;5012041;28;20136;-49
2022/06/09 12:07:10;;;;;;;3.58;1.05;;;22.10;99.90;;;;;;5021356;28;20047;-50
2022/06/09 12:10:02;;;;;;;3.65;1.08;;;21.70;99.90;;;;;;5025637;28;20041;-50
2022/06/09 12:12:38;;;;;;;3.90;1.33;;;21.70;99.90;;;;;;5022708;28;20412;-48
2022/06/09 12:15:28;;;;;;;3.83;1.00;;;22.00;99.90;;;;;;5022253;28;20053;-48
2022/06/09 12:18:05;;;;;;;4.20;0.90;;;22.00;99.90;;;;;;5022801;28;20358;-52
2022/06/09 12:20:34;;;;;;;;;;;22.00;99.90;;;;;;5019638;28;20095;-48
2022/06/09 12:23:27;;;;;;;2.83;1.10;;;21.80;99.90;;;;;;5022159;28;20024;-52
2022/06/09 12:26:11;;;;;;;4.40;1.15;;;22.10;99.90;;;;;;5023853;28;20048;-49
2022/06/09 12:28:49;;;;;;;7.05;1.20;;;22.10;99.90;;;;;;5028057;28;20046;-48
2022/06/09 12:32:22;;;;;;;3.05;1.10;;;22.10;99.90;;;;;;5021751;28;20041;-48
2022/06/09 12:34:50;;;;;;;5.15;1.30;;;22.20;99.90;;;;;;4970140;28;20465;-53
2022/06/09 12:37:28;;;;;;;5.53;1.30;;;22.40;99.90;;;;;;4965827;28;20062;-47
2022/06/09 12:39:59;;;;;;;3.30;1.10;;;22.60;99.90;;;;;;4967850;28;20046;-47
2022/06/09 12:42:42;;;;;;;4.53;1.08;;;23.00;99.90;;;;;;4965002;28;20039;-48
2022/06/09 12:45:26;;;;;;;2.90;1.20;;;22.90;99.90;;;;;;4966756;28;20091;-48
2022/06/09 12:48:02;;;;;;;3.15;0.90;;;22.90;99.90;;;;;;4967497;28;20056;-48
2022/06/09 12:50:33;;;;;;;4.50;1.05;;;23.00;99.90;;;;;;4970535;28;20591;-53
2022/06/09 12:53:00;;;;;;;2.88;0.90;;;23.10;99.90;;;;;;4970611;28;20474;-50
2022/06/09 12:55:29;;;;;;;4.20;0.80;;;23.30;99.90;;;;;;4972891;28;20113;-51
2022/06/09 12:58:09;;;;;;;3.03;0.98;;;23.20;99.90;;;;;;4970272;28;20332;-49
2022/06/09 13:00:44;;;;;;;6.65;1.58;;;23.00;99.90;;;;;;4958826;28;20047;-48
2022/06/09 13:03:32;;;;;;;4.75;1.38;;;22.90;99.90;;;;;;4966202;28;20110;-48
2022/06/09 13:06:18;;;;;;;3.78;1.40;;;22.70;99.90;;;;;;4972699;28;20130;-48
2022/06/09 13:08:45;;;;;;;4.60;1.40;;;22.60;99.90;;;;;;4973513;28;20117;-48
2022/06/09 13:14:11;;;;;;;6.70;1.40;;;22.40;99.90;;;;;;5032196;28;20068;-49
2022/06/09 13:16:44;;;;;;;3.35;1.30;;;22.60;99.90;;;;;;5028044;28;20053;-48
2022/06/09 13:19:13;;;;;;;4.47;1.70;;;22.70;99.90;;;;;;5031923;28;20029;-49
2022/06/09 13:21:42;;;;;;;2.70;0.95;;;22.80;99.90;;;;;;5029196;28;20034;-49
2022/06/09 13:24:30;;;;;;;7.00;1.65;;;22.80;99.90;;;;;;5024540;28;20049;-47
2022/06/09 13:26:57;;;;;;;7.50;1.25;;;22.70;99.90;;;;;;5025406;28;20096;-49
2022/06/09 13:29:26;;;;;;;3.00;1.17;;;22.60;99.90;;;;;;5030004;28;20045;-48
2022/06/09 13:32:09;;;;;;;8.38;1.30;;;22.80;99.90;;;;;;5029045;28;20064;-48